createdAt,value
2022-09-19T00:01:24.186Z,8.40
2022-09-19T00:03:55.738Z,8.40
2022-09-19T00:06:24.744Z,8.30
2022-09-19T00:08:52.583Z,8.30
2022-09-19T00:11:21.448Z,8.30
2022-09-19T00:13:50.534Z,8.30
2022-09-19T00:16:20.749Z,8.20
2022-09-19T00:18:50.436Z,8.30
2022-09-19T00:21:22.421Z,8.30
2022-09-19T00:24:08.568Z,8.30
2022-09-19T00:26:37.045Z,8.40
2022-09-19T00:29:05.445Z,8.40
2022-09-19T00:31:33.577Z,8.40
2022-09-19T00:34:06.209Z,8.40
2022-09-19T00:36:34.257Z,8.40
2022-09-19T00:39:02.423Z,8.50
2022-09-19T00:41:30.478Z,8.40
2022-09-19T00:44:00.453Z,8.50
2022-09-19T00:46:32.085Z,8.50
2022-09-19T00:49:04.068Z,8.50
2022-09-19T00:51:36.496Z,8.50
2022-09-19T00:54:11.061Z,8.50
2022-09-19T00:56:42.642Z,8.60
2022-09-19T00:59:11.219Z,8.60
2022-09-19T01:01:39.814Z,8.50
2022-09-19T01:04:15.259Z,8.50
2022-09-19T01:06:53.723Z,8.50
2022-09-19T01:09:39.728Z,8.50
2022-09-19T01:12:29.017Z,8.50
2022-09-19T01:15:10.845Z,8.50
2022-09-19T01:17:47.050Z,8.50
2022-09-19T01:20:37.706Z,8.50
2022-09-19T01:23:18.253Z,8.50
2022-09-19T01:25:52.708Z,8.40
2022-09-19T01:28:25.532Z,8.50
2022-09-19T01:31:12.427Z,8.40
2022-09-19T01:33:42.420Z,8.50
2022-09-19T01:36:15.673Z,8.40
2022-09-19T01:38:46.333Z,8.40
2022-09-19T01:41:16.056Z,8.50
2022-09-19T01:43:45.172Z,8.50
2022-09-19T01:46:22.256Z,8.40
2022-09-19T01:48:55.915Z,8.50
2022-09-19T01:51:30.277Z,8.50
2022-09-19T01:54:11.316Z,8.50
2022-09-19T01:56:50.821Z,8.40
2022-09-19T01:59:36.189Z,8.50
2022-09-19T02:02:13.967Z,8.40
2022-09-19T02:04:46.929Z,8.40
2022-09-19T02:07:24.124Z,8.40
2022-09-19T02:09:57.525Z,8.40
2022-09-19T02:12:28.269Z,8.40
2022-09-19T02:15:00.657Z,8.40
2022-09-19T02:17:34.044Z,8.50
2022-09-19T02:20:09.135Z,8.50
2022-09-19T02:22:42.152Z,8.40
2022-09-19T02:25:14.388Z,8.50
2022-09-19T02:27:51.109Z,8.50
2022-09-19T02:30:21.554Z,8.60
2022-09-19T02:32:50.983Z,8.50
2022-09-19T02:35:35.725Z,8.60
2022-09-19T02:38:11.684Z,8.60
2022-09-19T02:40:48.348Z,8.60
2022-09-19T02:43:24.844Z,8.60
2022-09-19T02:45:57.017Z,8.60
2022-09-19T02:48:32.090Z,8.60
2022-09-19T02:51:06.073Z,8.70
2022-09-19T02:53:42.628Z,8.60
2022-09-19T02:56:14.489Z,8.60
2022-09-19T02:58:47.531Z,8.60
2022-09-19T03:01:22.063Z,8.70
2022-09-19T03:04:11.829Z,8.70
2022-09-19T03:06:44.340Z,8.70
2022-09-19T03:09:15.099Z,8.60
2022-09-19T03:11:47.624Z,8.60
2022-09-19T03:14:15.392Z,8.60
2022-09-19T03:16:48.272Z,8.70
2022-09-19T03:19:16.564Z,8.60
2022-09-19T03:21:44.656Z,8.70
2022-09-19T03:24:12.482Z,8.70
2022-09-19T03:26:40.249Z,8.70
2022-09-19T03:29:10.341Z,8.70
2022-09-19T03:31:38.124Z,8.80
2022-09-19T03:34:07.376Z,8.70
2022-09-19T03:36:35.521Z,8.70
2022-09-19T03:39:03.648Z,8.70
2022-09-19T03:41:33.615Z,8.70
2022-09-19T03:44:02.760Z,8.70
2022-09-19T03:46:33.148Z,8.70
2022-09-19T03:49:03.318Z,8.70
2022-09-19T03:51:34.532Z,8.80
2022-09-19T03:54:02.413Z,8.80
2022-09-19T03:56:30.279Z,8.80
2022-09-19T03:58:58.125Z,8.80
2022-09-19T04:01:25.903Z,8.80
2022-09-19T04:03:53.879Z,8.90
2022-09-19T04:06:21.639Z,8.80
2022-09-19T04:08:50.733Z,8.80
2022-09-19T04:11:18.477Z,8.80
2022-09-19T04:13:49.924Z,8.80
2022-09-19T04:16:18.498Z,8.90
2022-09-19T04:18:48.705Z,8.90
2022-09-19T04:21:17.684Z,8.90
2022-09-19T04:23:46.176Z,9.00
2022-09-19T04:26:15.916Z,8.90
2022-09-19T04:28:44.196Z,9.10
2022-09-19T04:31:13.776Z,8.90
2022-09-19T04:33:42.151Z,9.00
2022-09-19T04:36:09.932Z,8.90
2022-09-19T04:38:38.560Z,8.90
2022-09-19T04:41:07.164Z,8.90
2022-09-19T04:43:37.197Z,8.90
2022-09-19T04:46:07.257Z,8.90
2022-09-19T04:48:35.223Z,9.00
2022-09-19T04:51:05.696Z,9.00
2022-09-19T04:53:34.487Z,9.00
2022-09-19T04:56:02.536Z,9.00
2022-09-19T04:58:30.336Z,9.00
2022-09-19T05:00:59.536Z,9.00
2022-09-19T05:03:28.081Z,9.00
2022-09-19T05:05:56.159Z,9.10
2022-09-19T05:08:27.093Z,9.10
2022-09-19T05:10:56.629Z,9.10
2022-09-19T05:13:24.901Z,9.10
2022-09-19T05:15:53.051Z,9.10
2022-09-19T05:18:22.764Z,9.10
2022-09-19T05:20:51.419Z,9.10
2022-09-19T05:23:19.140Z,9.10
2022-09-19T05:25:46.964Z,9.20
2022-09-19T05:28:14.728Z,9.20
2022-09-19T05:30:51.037Z,9.20
2022-09-19T05:33:22.418Z,9.20
2022-09-19T05:35:51.617Z,9.30
2022-09-19T05:38:19.362Z,9.30
2022-09-19T05:40:47.153Z,9.30
2022-09-19T05:43:14.958Z,9.40
2022-09-19T05:45:42.823Z,9.40
2022-09-19T05:48:11.529Z,9.40
2022-09-19T05:50:39.269Z,9.40
2022-09-19T05:53:26.103Z,9.40
2022-09-19T05:55:54.037Z,9.40
2022-09-19T05:58:21.879Z,9.40
2022-09-19T06:00:49.888Z,9.40
2022-09-19T06:03:18.678Z,9.40
2022-09-19T06:05:49.813Z,9.40
2022-09-19T06:08:20.253Z,9.40
2022-09-19T06:10:50.213Z,9.40
2022-09-19T06:13:21.368Z,9.40
2022-09-19T06:15:49.702Z,9.40
2022-09-19T06:18:18.100Z,9.50
2022-09-19T06:20:47.143Z,9.50
2022-09-19T06:23:14.959Z,9.50
2022-09-19T06:25:44.055Z,9.50
2022-09-19T06:28:13.377Z,9.50
2022-09-19T06:30:41.116Z,9.50
2022-09-19T06:33:09.288Z,9.50
2022-09-19T06:35:37.068Z,9.50
2022-09-19T06:38:06.985Z,9.60
2022-09-19T06:40:35.710Z,9.60
2022-09-19T06:43:06.546Z,9.60
2022-09-19T06:45:38.589Z,9.70
2022-09-19T06:48:07.349Z,9.70
2022-09-19T06:50:35.811Z,9.70
2022-09-19T06:53:04.440Z,9.70
2022-09-19T06:55:32.232Z,9.70
2022-09-19T06:58:01.616Z,9.80
2022-09-19T07:00:32.496Z,9.80
2022-09-19T07:03:01.992Z,9.80
2022-09-19T07:05:31.540Z,9.90
2022-09-19T07:07:59.278Z,9.90
2022-09-19T07:10:27.173Z,9.90
2022-09-19T07:12:57.305Z,9.90
2022-09-19T07:15:25.727Z,9.90
2022-09-19T07:17:57.038Z,10.00
2022-09-19T07:20:26.724Z,10.00
2022-09-19T07:23:01.394Z,10.00
2022-09-19T07:25:29.744Z,10.10
2022-09-19T07:28:02.203Z,10.10
2022-09-19T07:30:33.262Z,10.20
2022-09-19T07:33:03.982Z,10.30
2022-09-19T07:35:35.982Z,10.40
2022-09-19T07:38:04.418Z,10.50
2022-09-19T07:40:33.989Z,10.50
2022-09-19T07:43:02.863Z,10.40
2022-09-19T07:45:34.884Z,10.50
2022-09-19T07:48:05.296Z,10.60
2022-09-19T07:50:33.784Z,10.70
2022-09-19T07:53:02.912Z,10.80
2022-09-19T07:55:31.739Z,10.70
2022-09-19T07:58:00.962Z,10.70
2022-09-19T08:00:29.960Z,10.70
2022-09-19T08:02:58.310Z,10.70
2022-09-19T08:05:28.885Z,10.70
2022-09-19T08:07:56.970Z,10.70
2022-09-19T08:10:24.712Z,10.70
2022-09-19T08:12:52.479Z,10.70
2022-09-19T08:15:21.497Z,10.80
2022-09-19T08:17:59.203Z,10.90
2022-09-19T08:20:30.677Z,11.10
2022-09-19T08:22:59.132Z,11.20
2022-09-19T08:25:27.407Z,11.30
2022-09-19T08:27:57.008Z,11.30
2022-09-19T08:30:25.064Z,11.30
2022-09-19T08:32:53.135Z,11.50
2022-09-19T08:35:22.138Z,11.70
2022-09-19T08:37:55.465Z,11.80
2022-09-19T08:40:30.124Z,11.90
2022-09-19T08:43:10.847Z,12.00
2022-09-19T08:45:54.487Z,12.00
2022-09-19T08:48:26.288Z,12.10
2022-09-19T08:50:58.768Z,12.10
2022-09-19T08:53:33.728Z,12.10
2022-09-19T09:00:28.043Z,12.20
2022-09-19T09:03:05.597Z,12.30
2022-09-19T09:05:47.144Z,12.30
2022-09-19T09:08:27.334Z,12.20
2022-09-19T09:11:01.957Z,12.10
2022-09-19T09:13:59.409Z,12.10
2022-09-19T09:16:41.824Z,12.10
2022-09-19T09:19:27.304Z,12.20
2022-09-19T09:22:02.841Z,12.30
2022-09-19T09:24:36.058Z,12.70
2022-09-19T09:27:12.064Z,13.10
2022-09-19T09:29:45.186Z,13.80
2022-09-19T09:32:21.884Z,14.60
2022-09-19T09:34:54.893Z,15.20
2022-09-19T09:37:28.291Z,15.70
2022-09-19T09:40:01.820Z,15.90
2022-09-19T09:42:38.692Z,15.90
2022-09-19T09:45:17.732Z,15.90
2022-09-19T09:47:52.805Z,15.80
2022-09-19T09:50:35.888Z,16.00
2022-09-19T09:53:15.909Z,16.10
2022-09-19T09:56:12.032Z,15.90
2022-09-19T09:58:49.002Z,15.60
2022-09-19T10:01:44.242Z,15.20
2022-09-19T10:04:21.975Z,14.90
2022-09-19T10:06:57.856Z,14.50
2022-09-19T10:09:29.285Z,14.20
2022-09-19T10:14:52.785Z,13.80
2022-09-19T10:17:21.027Z,13.50
2022-09-19T10:19:52.141Z,13.30
2022-09-19T10:22:19.903Z,13.20
2022-09-19T10:24:52.211Z,13.10
2022-09-19T10:27:24.766Z,13.20
2022-09-19T10:29:58.964Z,13.60
2022-09-19T10:32:32.894Z,14.20
2022-09-19T10:35:00.658Z,14.80
2022-09-19T10:37:28.753Z,15.10
2022-09-19T10:40:01.817Z,15.30
2022-09-19T10:42:38.025Z,15.50
2022-09-19T10:45:22.229Z,15.70
2022-09-19T10:47:50.007Z,15.50
2022-09-19T10:50:20.275Z,15.10
2022-09-19T10:52:52.396Z,14.70
2022-09-19T10:55:23.783Z,14.50
2022-09-19T10:58:01.213Z,14.60
2022-09-19T11:00:33.644Z,14.70
2022-09-19T11:03:06.125Z,14.90
2022-09-19T11:05:37.939Z,14.90
2022-09-19T11:08:25.156Z,14.80
2022-09-19T11:10:53.017Z,14.60
2022-09-19T11:13:23.333Z,14.40
2022-09-19T11:16:13.841Z,14.20
2022-09-19T11:18:56.725Z,14.00
2022-09-19T11:21:33.145Z,13.80
2022-09-19T11:24:13.604Z,13.80
2022-09-19T11:27:01.757Z,13.70
2022-09-19T11:29:42.349Z,13.70
2022-09-19T11:35:27.196Z,13.70
2022-09-19T11:41:17.996Z,13.60
2022-09-19T11:44:01.260Z,13.70
2022-09-19T11:46:34.121Z,13.80
2022-09-19T11:49:23.455Z,14.00
2022-09-19T11:51:58.880Z,14.10
2022-09-19T11:54:50.425Z,14.30
2022-09-19T11:57:37.664Z,14.60
2022-09-19T12:00:14.982Z,15.00
2022-09-19T12:03:11.692Z,15.50
2022-09-19T12:05:57.859Z,16.00
2022-09-19T12:08:35.153Z,16.10
2022-09-19T12:11:10.121Z,16.10
2022-09-19T12:13:45.033Z,16.30
2022-09-19T12:16:25.711Z,16.30
2022-09-19T12:18:57.411Z,16.30
2022-09-19T12:21:32.836Z,16.20
2022-09-19T12:24:24.820Z,16.00
2022-09-19T12:26:57.359Z,15.80
2022-09-19T12:29:35.102Z,15.70
2022-09-19T12:32:14.215Z,15.70
2022-09-19T12:34:48.656Z,15.70
2022-09-19T12:37:24.404Z,15.50
2022-09-19T12:40:08.152Z,15.50
2022-09-19T12:42:45.972Z,15.50
2022-09-19T12:45:18.383Z,15.60
2022-09-19T12:47:56.417Z,15.60
2022-09-19T12:50:33.340Z,15.60
2022-09-19T12:53:15.804Z,15.50
2022-09-19T12:55:54.729Z,15.50
2022-09-19T12:58:27.507Z,15.40
2022-09-19T13:01:10.000Z,15.40
2022-09-19T13:03:44.204Z,15.30
2022-09-19T13:06:18.722Z,15.30
2022-09-19T13:08:53.195Z,15.50
2022-09-19T13:11:26.702Z,15.70
2022-09-19T13:13:57.803Z,16.00
2022-09-19T13:16:29.913Z,16.10
2022-09-19T13:19:16.220Z,16.20
2022-09-19T13:22:03.412Z,16.20
2022-09-19T13:24:55.832Z,16.10
2022-09-19T13:27:25.496Z,16.00
2022-09-19T13:29:55.312Z,15.90
2022-09-19T13:32:53.024Z,15.80
2022-09-19T13:35:23.501Z,15.60
2022-09-19T13:38:02.777Z,15.30
2022-09-19T13:40:41.116Z,15.10
2022-09-19T13:43:29.981Z,14.90
2022-09-19T13:46:06.563Z,14.70
2022-09-19T13:48:43.605Z,14.40
2022-09-19T13:51:16.316Z,14.10
2022-09-19T13:53:46.078Z,13.70
2022-09-19T13:56:28.601Z,13.30
2022-09-19T13:59:20.478Z,13.20
2022-09-19T14:02:00.354Z,13.20
2022-09-19T14:04:55.651Z,13.30
2022-09-19T14:10:22.922Z,13.50
2022-09-19T14:12:58.464Z,13.60
2022-09-19T14:15:49.385Z,13.90
2022-09-19T14:18:54.340Z,14.00
2022-09-19T14:21:59.172Z,14.00
2022-09-19T14:24:49.724Z,13.90
2022-09-19T14:27:33.207Z,13.80
2022-09-19T14:30:07.711Z,13.80
2022-09-19T14:32:43.337Z,13.70
2022-09-19T14:35:35.345Z,13.60
2022-09-19T14:38:36.007Z,13.40
2022-09-19T14:41:06.611Z,13.40
2022-09-19T14:44:28.632Z,13.30
2022-09-19T14:47:01.096Z,13.40
2022-09-19T14:49:34.235Z,13.50
2022-09-19T14:52:05.982Z,13.50
2022-09-19T14:54:41.191Z,13.60
2022-09-19T14:57:16.681Z,13.60
2022-09-19T14:59:45.518Z,13.60
2022-09-19T15:02:28.822Z,13.60
2022-09-19T15:05:01.500Z,13.60
2022-09-19T15:07:30.983Z,13.50
2022-09-19T15:09:59.452Z,13.50
2022-09-19T15:12:32.550Z,13.50
2022-09-19T15:15:00.699Z,13.40
2022-09-19T15:17:31.733Z,13.30
2022-09-19T15:20:13.528Z,13.20
2022-09-19T15:22:45.773Z,13.20
2022-09-19T15:25:22.500Z,13.10
2022-09-19T15:27:53.582Z,13.10
2022-09-19T15:30:23.722Z,13.00
2022-09-19T15:32:55.444Z,13.00
2022-09-19T15:35:24.075Z,12.90
2022-09-19T15:37:52.754Z,12.80
2022-09-19T15:40:24.570Z,12.80
2022-09-19T15:42:58.788Z,12.70
2022-09-19T15:45:44.578Z,12.60
2022-09-19T15:48:21.257Z,12.60
2022-09-19T15:50:51.522Z,12.50
2022-09-19T15:53:29.224Z,12.50
2022-09-19T15:56:00.217Z,12.50
2022-09-19T15:58:34.496Z,12.60
2022-09-19T16:01:11.868Z,12.60
2022-09-19T16:03:47.737Z,12.70
2022-09-19T16:06:44.036Z,12.70
2022-09-19T16:09:12.984Z,12.80
2022-09-19T16:11:45.398Z,12.90
2022-09-19T16:14:19.465Z,12.80
2022-09-19T16:16:54.683Z,12.90
2022-09-19T16:19:40.676Z,12.90
2022-09-19T16:22:11.508Z,12.90
2022-09-19T16:24:45.500Z,12.90
2022-09-19T16:27:14.561Z,12.90
2022-09-19T16:29:45.912Z,12.90
2022-09-19T16:32:17.209Z,12.90
2022-09-19T16:34:50.337Z,12.90
2022-09-19T16:37:32.250Z,12.90
2022-09-19T16:40:00.455Z,12.80
2022-09-19T16:42:33.194Z,12.80
2022-09-19T16:45:22.327Z,12.70
2022-09-19T16:47:51.055Z,12.60
2022-09-19T16:50:24.888Z,12.60
2022-09-19T16:52:53.001Z,12.50
2022-09-19T16:55:24.029Z,12.50
2022-09-19T16:57:56.008Z,12.30
2022-09-19T17:00:24.219Z,12.30
2022-09-19T17:02:51.957Z,12.20
2022-09-19T17:05:23.834Z,12.20
2022-09-19T17:07:51.940Z,12.20
2022-09-19T17:10:21.672Z,12.10
2022-09-19T17:12:49.644Z,12.10
2022-09-19T17:15:29.264Z,12.10
2022-09-19T17:17:57.131Z,12.00
2022-09-19T17:20:26.251Z,12.00
2022-09-19T17:22:53.983Z,12.00
2022-09-19T17:25:31.619Z,12.00
2022-09-19T17:27:59.825Z,11.90
2022-09-19T17:30:27.636Z,11.80
2022-09-19T17:32:55.902Z,11.80
2022-09-19T17:35:23.745Z,11.80
2022-09-19T17:37:52.800Z,11.80
2022-09-19T17:40:20.849Z,11.70
2022-09-19T17:42:49.388Z,11.70
2022-09-19T17:45:17.928Z,11.70
2022-09-19T17:47:45.691Z,11.60
2022-09-19T17:50:13.451Z,11.60
2022-09-19T17:52:41.235Z,11.60
2022-09-19T17:55:11.161Z,11.60
2022-09-19T17:57:39.194Z,11.50
2022-09-19T18:00:08.000Z,11.50
2022-09-19T18:02:53.124Z,11.50
2022-09-19T18:05:23.841Z,11.50
2022-09-19T18:07:54.466Z,11.50
2022-09-19T18:10:25.395Z,11.50
2022-09-19T18:12:55.481Z,11.40
2022-09-19T18:15:26.209Z,11.50
2022-09-19T18:17:54.236Z,11.50
2022-09-19T18:20:22.988Z,11.50
2022-09-19T18:22:51.079Z,11.50
2022-09-19T18:25:18.836Z,11.60
2022-09-19T18:27:48.408Z,11.50
2022-09-19T18:30:18.306Z,11.60
2022-09-19T18:32:47.726Z,11.60
2022-09-19T18:35:17.735Z,11.50
2022-09-19T18:37:45.966Z,11.40
2022-09-19T18:40:16.064Z,11.20
2022-09-19T18:42:44.097Z,11.10
2022-09-19T18:45:13.464Z,11.00
2022-09-19T18:47:41.630Z,11.00
2022-09-19T18:50:11.457Z,11.00
2022-09-19T18:52:39.295Z,11.00
2022-09-19T18:55:07.767Z,11.00
2022-09-19T18:57:35.499Z,10.90
2022-09-19T19:00:04.850Z,10.90
2022-09-19T19:02:35.892Z,10.90
2022-09-19T19:05:03.781Z,10.90
2022-09-19T19:07:31.840Z,10.90
2022-09-19T19:09:59.696Z,10.90
2022-09-19T19:12:40.036Z,10.90
2022-09-19T19:15:17.413Z,10.80
2022-09-19T19:17:47.807Z,10.90
2022-09-19T19:20:16.397Z,10.90
2022-09-19T19:22:45.278Z,10.90
2022-09-19T19:25:13.071Z,10.80
2022-09-19T19:27:40.836Z,10.80
2022-09-19T19:30:09.456Z,10.80
2022-09-19T19:32:37.726Z,10.80
2022-09-19T19:35:07.555Z,10.80
2022-09-19T19:37:37.192Z,10.80
2022-09-19T19:40:05.867Z,10.80
2022-09-19T19:42:33.804Z,10.80
2022-09-19T19:45:02.220Z,10.90
2022-09-19T19:47:30.163Z,10.90
2022-09-19T19:49:57.900Z,10.90
2022-09-19T19:52:26.989Z,10.90
2022-09-19T19:54:54.726Z,10.90
2022-09-19T19:57:22.479Z,10.90
2022-09-19T19:59:50.211Z,10.90
2022-09-19T20:02:18.009Z,10.80
2022-09-19T20:04:45.823Z,10.80
2022-09-19T20:07:13.536Z,10.70
2022-09-19T20:09:42.593Z,10.80
2022-09-19T20:12:10.436Z,10.80
2022-09-19T20:14:38.168Z,10.80
2022-09-19T20:17:05.929Z,10.80
2022-09-19T20:19:35.749Z,10.80
2022-09-19T20:22:03.537Z,10.80
2022-09-19T20:24:32.483Z,10.80
2022-09-19T20:27:01.554Z,10.80
2022-09-19T20:29:29.948Z,10.80
2022-09-19T20:31:57.796Z,10.80
2022-09-19T20:34:25.609Z,10.80
2022-09-19T20:36:53.356Z,10.80
2022-09-19T20:39:22.787Z,10.80
2022-09-19T20:41:50.530Z,10.80
2022-09-19T20:44:23.660Z,10.80
2022-09-19T20:46:51.780Z,10.80
2022-09-19T20:49:20.940Z,10.80
2022-09-19T20:51:48.697Z,10.80
2022-09-19T20:54:21.520Z,10.90
2022-09-19T20:56:50.160Z,10.90
2022-09-19T20:59:20.360Z,10.80
2022-09-19T21:01:51.103Z,10.80
2022-09-19T21:04:21.065Z,10.80
2022-09-19T21:06:49.035Z,10.80
2022-09-19T21:09:16.811Z,10.80
2022-09-19T21:11:44.625Z,10.70
2022-09-19T21:14:12.390Z,10.70
2022-09-19T21:16:41.593Z,10.70
2022-09-19T21:19:09.445Z,10.70
2022-09-19T21:21:37.181Z,10.70
2022-09-19T21:24:05.637Z,10.70
2022-09-19T21:26:34.876Z,10.70
2022-09-19T21:29:04.963Z,10.70
2022-09-19T21:31:35.017Z,10.70
2022-09-19T21:34:06.483Z,10.70
2022-09-19T21:36:36.192Z,10.70
2022-09-19T21:39:04.069Z,10.70
2022-09-19T21:41:34.682Z,10.70
2022-09-19T21:44:03.822Z,10.70
2022-09-19T21:46:33.888Z,10.70
2022-09-19T21:49:01.713Z,10.70
2022-09-19T21:51:32.753Z,10.70
2022-09-19T21:54:02.492Z,10.70
2022-09-19T21:56:32.101Z,10.60
2022-09-19T21:59:00.727Z,10.60
2022-09-19T22:01:30.024Z,10.60
2022-09-19T22:03:58.893Z,10.60
2022-09-19T22:06:29.579Z,10.60
2022-09-19T22:09:00.194Z,10.60
2022-09-19T22:11:29.846Z,10.60
2022-09-19T22:13:59.389Z,10.60
2022-09-19T22:16:28.586Z,10.60
2022-09-19T22:18:56.471Z,10.60
2022-09-19T22:21:24.594Z,10.60
2022-09-19T22:23:53.674Z,10.50
2022-09-19T22:26:24.529Z,10.50
2022-09-19T22:28:53.461Z,10.50
2022-09-19T22:31:21.845Z,10.50
2022-09-19T22:33:51.290Z,10.50
2022-09-19T22:36:21.430Z,10.50
2022-09-19T22:38:50.592Z,10.50
2022-09-19T22:41:20.124Z,10.40
2022-09-19T22:43:51.762Z,10.40
2022-09-19T22:46:21.639Z,10.40
2022-09-19T22:48:49.444Z,10.40
2022-09-19T22:51:18.712Z,10.40
2022-09-19T22:53:48.165Z,10.40
2022-09-19T22:56:17.845Z,10.40
2022-09-19T22:58:46.378Z,10.40
2022-09-19T23:01:17.507Z,10.40
2022-09-19T23:03:45.900Z,10.40
2022-09-19T23:06:15.281Z,10.40
2022-09-19T23:08:43.209Z,10.40
2022-09-19T23:11:10.959Z,10.40
2022-09-19T23:13:51.691Z,10.40
2022-09-19T23:16:23.766Z,10.40
2022-09-19T23:18:53.920Z,10.40
2022-09-19T23:21:22.963Z,10.40
2022-09-19T23:23:51.932Z,10.40
2022-09-19T23:26:19.955Z,10.40
2022-09-19T23:28:48.343Z,10.40
2022-09-19T23:31:16.825Z,10.40
2022-09-19T23:33:46.397Z,10.40
2022-09-19T23:36:15.846Z,10.40
2022-09-19T23:38:44.413Z,10.40
2022-09-19T23:41:13.080Z,10.40
2022-09-19T23:43:41.345Z,10.40
2022-09-19T23:46:09.468Z,10.50
2022-09-19T23:48:38.007Z,10.40
2022-09-19T23:51:09.041Z,10.50
2022-09-19T23:53:38.445Z,10.50
2022-09-19T23:56:07.116Z,10.50
2022-09-19T23:58:35.653Z,10.50
